Ana Sayfa
METAR-TAF:

METAR-TAF

Havaalanları :

Manokotak, Alaska, Amerika Birleşik Devletleri

Enlem: 58-59-19N, Boylam: 159-02-56W, yükseklik: 16 m

Güncel hava durumu gözlemi

Rapor saat 16:56 UTC de 15 dakika önce yapıldı.
Rüzgar kuzey/kuzeydoğudan 5 kt
Sıcaklık 1°C
Nem 93%
Basınç 1022 hPa

METAR: PAMB 021656Z AUTO 03005KT 01/00 A3019 RMK AO2 SLP227 T00060000 PWINO FZRANO $

Saat: 09:11 (17:11 UTC)


TAF: eksik

4.000'den fazla havaalanı için hava durumu gözlemleri ve tahminleri (METAR ve TAF raporları).

Kullanılabilir istasyonlar harita üzerinde sarı ve kırmızı noktalarla gösterilir.

İstasyonun adını görmek için fareyi noktanın üzerinde gezdirin.

Sonrasında hava gözlem ve tahminlerini görmek için tıklayın.

Haritayı değiştirmek için: yaklaştırmak için siyah artı işaretli yeşil düğmeye ve uzaklaştırmak için de eksi işaretli düğmeye hızla tıklayın; bitişik haritalar için yeşil okları kullanın.


METAR-TAF: